Other Surface Observations
Issued by NWS Great Falls, MT

Home | Current Version | Previous Version | Graphics & Text | Print | Product List | Glossary On
Versions: 1 2 3 4 5 6 7 8 9 10 11 12 13 14 15 16 17 18 19 20 21 22 23 24 25 26 27 28 29 30 31 32 33 34 35 36 37 38 39 40 41 42 43 44 45 46 47 48 49 50
000
SXUS55 KTFX 231552
OSOTFX
AREA AWOS OBSERVATIONS
NATIONAL WEATHER SERVICE GREAT FALLS MT
0850 AM MST SUN NOV 23 2014

METAR KPWD 231545Z AUTO 32028G36KT 1 1/4SM M10/M13 A2964 RMK PLENTYWOOD
METAR KPO1 231545Z AUTO 10SM M05/M10 A2973 RMK POPLAR
METAR K1S3 231545Z AUTO 27016G23KT 10SM 02/M03 A2981 RMK FORSYTH
METAR KS71 231545Z AUTO 25008KT 10SM 00/M04 A2987 RMK CHINOOK
METAR K6S0 231545Z AUTO 25021G29KT 4SM M01/M06 A2991 RMK BIG TIMBER
METAR K79S 231545Z AUTO 22005KT 10SM 01/M04 A2990 RMK FORT BENTON
METAR KEKS 231545Z AUTO 00000KT 10SM M02/M09 A3008 RMK ENNIS
METAR K38S 231545Z AUTO 08003KT 10SM 00/M07 A3007 RMK DEER LODGE
METAR K6S5 231545Z AUTO 22003KT 10SM 02/M04 A3012 RMK HAMILTON
METAR KS59 231545Z AUTO 33003KT 10SM M02/M04 A3007 RMK LIBBY
METAR K88M 231545Z AUTO 10006KT 10SM 02/M05 A3004 RMK EUREKA



USA.gov is the U.S. government's official web portal to all federal, state and local government web resources and services.